Bluefield, West Virginia
Current Conditions -  °F | °C
As of 2:52 PM on Monday 24 Nov 2014 (Local Time) from KBLF Reporting Station
Few Clouds Few Clouds  
Wind Chill: 69°   Ceiling: Unl
Heat Index: 69°   Visibility: 10mi
Dew Point: 36°   Wind: 24mph
Humidity: 30%   Direction: 250°WSW
Pressure: 29.71"   Gusts: 40mph
Location:  37.27°N, 81.22°W
Report Text: KBLF 241952Z AUTO 25021G35KT 10SM FEW070 21/02 A2971 RMK AO2 PK WND 24035/1946 SLP031 T02060022
Loading
Personal Weather Stations






























Interactive Weather Map New forecast layout! Learn more

10-Day Weather Forecast

Advertisements
Track Severe Weather on mobile